sensor_id;sensor_type;location;lat;lon;timestamp;P1;durP1;ratioP1;P2;durP2;ratioP2
39676;SDS011;27789;50.840;4.386;2022-12-13T00:01:42;30.75;;;15.13;;
39676;SDS011;27789;50.840;4.386;2022-12-13T00:04:09;31.25;;;14.90;;
39676;SDS011;27789;50.840;4.386;2022-12-13T00:06:35;36.85;;;16.00;;
39676;SDS011;27789;50.840;4.386;2022-12-13T00:09:01;32.03;;;14.32;;
39676;SDS011;27789;50.840;4.386;2022-12-13T00:11:28;33.45;;;14.93;;
39676;SDS011;27789;50.840;4.386;2022-12-13T00:13:54;31.55;;;13.90;;
39676;SDS011;27789;50.840;4.386;2022-12-13T00:16:21;33.45;;;15.13;;
39676;SDS011;27789;50.840;4.386;2022-12-13T00:18:49;35.67;;;14.50;;
39676;SDS011;27789;50.840;4.386;2022-12-13T00:21:18;33.88;;;15.70;;
39676;SDS011;27789;50.840;4.386;2022-12-13T00:23:45;32.38;;;15.60;;
39676;SDS011;27789;50.840;4.386;2022-12-13T00:26:13;28.02;;;14.40;;
39676;SDS011;27789;50.840;4.386;2022-12-13T00:28:40;31.55;;;15.38;;
39676;SDS011;27789;50.840;4.386;2022-12-13T00:31:06;33.92;;;15.02;;
39676;SDS011;27789;50.840;4.386;2022-12-13T00:33:32;33.92;;;15.18;;
39676;SDS011;27789;50.840;4.386;2022-12-13T00:35:58;28.17;;;15.13;;
39676;SDS011;27789;50.840;4.386;2022-12-13T00:38:23;36.30;;;15.05;;
39676;SDS011;27789;50.840;4.386;2022-12-13T00:40:49;32.35;;;15.52;;
39676;SDS011;27789;50.840;4.386;2022-12-13T00:43:17;30.65;;;15.35;;
39676;SDS011;27789;50.840;4.386;2022-12-13T00:45:43;28.73;;;14.07;;
39676;SDS011;27789;50.840;4.386;2022-12-13T00:48:09;30.92;;;15.18;;
39676;SDS011;27789;50.840;4.386;2022-12-13T00:50:36;29.92;;;14.70;;
39676;SDS011;27789;50.840;4.386;2022-12-13T00:53:02;35.45;;;17.65;;
39676;SDS011;27789;50.840;4.386;2022-12-13T00:55:28;29.17;;;14.65;;
39676;SDS011;27789;50.840;4.386;2022-12-13T00:57:53;30.98;;;14.00;;
39676;SDS011;27789;50.840;4.386;2022-12-13T01:00:22;26.10;;;14.68;;
39676;SDS011;27789;50.840;4.386;2022-12-13T01:02:50;34.00;;;15.23;;
39676;SDS011;27789;50.840;4.386;2022-12-13T01:05:17;27.92;;;14.27;;
39676;SDS011;27789;50.840;4.386;2022-12-13T01:07:43;23.85;;;13.65;;
39676;SDS011;27789;50.840;4.386;2022-12-13T01:10:09;30.98;;;14.73;;
39676;SDS011;27789;50.840;4.386;2022-12-13T01:12:36;28.98;;;14.18;;
39676;SDS011;27789;50.840;4.386;2022-12-13T01:15:05;28.48;;;14.23;;
39676;SDS011;27789;50.840;4.386;2022-12-13T01:17:33;31.80;;;13.50;;
39676;SDS011;27789;50.840;4.386;2022-12-13T01:19:59;28.38;;;13.80;;
39676;SDS011;27789;50.840;4.386;2022-12-13T01:22:25;29.08;;;14.10;;
39676;SDS011;27789;50.840;4.386;2022-12-13T01:24:50;27.27;;;12.98;;
39676;SDS011;27789;50.840;4.386;2022-12-13T01:27:16;29.35;;;15.77;;
39676;SDS011;27789;50.840;4.386;2022-12-13T01:29:41;30.38;;;13.70;;
39676;SDS011;27789;50.840;4.386;2022-12-13T01:32:07;28.85;;;14.38;;
39676;SDS011;27789;50.840;4.386;2022-12-13T01:34:33;32.20;;;14.82;;
39676;SDS011;27789;50.840;4.386;2022-12-13T01:36:58;25.83;;;12.85;;
39676;SDS011;27789;50.840;4.386;2022-12-13T01:39:25;27.63;;;13.75;;
39676;SDS011;27789;50.840;4.386;2022-12-13T01:41:51;26.92;;;15.02;;
39676;SDS011;27789;50.840;4.386;2022-12-13T01:47:10;28.70;;;15.25;;
39676;SDS011;27789;50.840;4.386;2022-12-13T01:49:37;25.60;;;14.07;;
39676;SDS011;27789;50.840;4.386;2022-12-13T01:52:04;28.95;;;14.07;;
39676;SDS011;27789;50.840;4.386;2022-12-13T01:54:34;28.52;;;14.27;;
39676;SDS011;27789;50.840;4.386;2022-12-13T01:57:05;29.40;;;15.48;;
39676;SDS011;27789;50.840;4.386;2022-12-13T01:59:33;33.13;;;15.50;;
39676;SDS011;27789;50.840;4.386;2022-12-13T02:02:01;34.67;;;15.88;;
39676;SDS011;27789;50.840;4.386;2022-12-13T02:04:36;29.88;;;13.88;;
39676;SDS011;27789;50.840;4.386;2022-12-13T02:07:09;29.40;;;14.38;;
39676;SDS011;27789;50.840;4.386;2022-12-13T02:09:38;28.05;;;15.15;;
39676;SDS011;27789;50.840;4.386;2022-12-13T02:12:04;34.25;;;15.75;;
39676;SDS011;27789;50.840;4.386;2022-12-13T02:14:30;32.22;;;15.43;;
39676;SDS011;27789;50.840;4.386;2022-12-13T02:25:03;29.58;;;14.85;;
39676;SDS011;27789;50.840;4.386;2022-12-13T02:27:51;32.97;;;15.30;;
39676;SDS011;27789;50.840;4.386;2022-12-13T02:30:38;32.95;;;15.38;;
39676;SDS011;27789;50.840;4.386;2022-12-13T02:35:47;31.02;;;14.90;;
39676;SDS011;27789;50.840;4.386;2022-12-13T02:41:16;30.40;;;15.07;;
39676;SDS011;27789;50.840;4.386;2022-12-13T02:46:20;27.70;;;14.60;;
39676;SDS011;27789;50.840;4.386;2022-12-13T02:48:50;30.15;;;14.95;;
39676;SDS011;27789;50.840;4.386;2022-12-13T02:51:18;30.90;;;14.82;;
39676;SDS011;27789;50.840;4.386;2022-12-13T02:53:45;27.15;;;14.48;;
39676;SDS011;27789;50.840;4.386;2022-12-13T02:56:12;25.27;;;13.35;;
39676;SDS011;27789;50.840;4.386;2022-12-13T02:58:46;32.55;;;15.63;;
39676;SDS011;27789;50.840;4.386;2022-12-13T03:03:47;25.17;;;13.88;;
39676;SDS011;27789;50.840;4.386;2022-12-13T03:09:17;28.15;;;14.15;;
39676;SDS011;27789;50.840;4.386;2022-12-13T03:14:34;31.38;;;15.27;;
39676;SDS011;27789;50.840;4.386;2022-12-13T03:17:05;27.85;;;14.20;;
39676;SDS011;27789;50.840;4.386;2022-12-13T03:19:32;26.80;;;13.77;;
39676;SDS011;27789;50.840;4.386;2022-12-13T03:21:58;32.67;;;14.70;;
39676;SDS011;27789;50.840;4.386;2022-12-13T03:24:23;25.45;;;13.18;;
39676;SDS011;27789;50.840;4.386;2022-12-13T03:26:49;29.23;;;13.45;;
39676;SDS011;27789;50.840;4.386;2022-12-13T03:29:16;25.42;;;14.60;;
39676;SDS011;27789;50.840;4.386;2022-12-13T03:31:42;27.48;;;13.85;;
39676;SDS011;27789;50.840;4.386;2022-12-13T03:34:07;28.88;;;12.80;;
39676;SDS011;27789;50.840;4.386;2022-12-13T03:36:33;32.90;;;12.68;;
39676;SDS011;27789;50.840;4.386;2022-12-13T03:38:59;28.30;;;13.65;;
39676;SDS011;27789;50.840;4.386;2022-12-13T03:41:25;27.35;;;12.98;;
39676;SDS011;27789;50.840;4.386;2022-12-13T03:43:56;26.10;;;13.20;;
39676;SDS011;27789;50.840;4.386;2022-12-13T03:46:28;25.58;;;14.55;;
39676;SDS011;27789;50.840;4.386;2022-12-13T03:48:53;26.20;;;12.55;;
39676;SDS011;27789;50.840;4.386;2022-12-13T03:51:19;25.33;;;13.07;;
39676;SDS011;27789;50.840;4.386;2022-12-13T03:53:45;24.42;;;13.35;;
39676;SDS011;27789;50.840;4.386;2022-12-13T03:56:10;25.33;;;13.60;;
39676;SDS011;27789;50.840;4.386;2022-12-13T03:58:36;29.88;;;13.75;;
39676;SDS011;27789;50.840;4.386;2022-12-13T04:01:05;28.48;;;13.68;;
39676;SDS011;27789;50.840;4.386;2022-12-13T04:03:41;25.33;;;12.75;;
39676;SDS011;27789;50.840;4.386;2022-12-13T04:06:09;25.00;;;13.45;;
39676;SDS011;27789;50.840;4.386;2022-12-13T04:08:35;33.10;;;13.73;;
39676;SDS011;27789;50.840;4.386;2022-12-13T04:11:02;30.17;;;15.70;;
39676;SDS011;27789;50.840;4.386;2022-12-13T04:13:47;29.90;;;13.93;;
39676;SDS011;27789;50.840;4.386;2022-12-13T04:16:13;26.17;;;13.88;;
39676;SDS011;27789;50.840;4.386;2022-12-13T04:18:38;31.95;;;14.27;;
39676;SDS011;27789;50.840;4.386;2022-12-13T04:21:04;26.13;;;14.55;;
39676;SDS011;27789;50.840;4.386;2022-12-13T04:23:30;30.58;;;14.77;;
39676;SDS011;27789;50.840;4.386;2022-12-13T04:25:55;25.20;;;12.98;;
39676;SDS011;27789;50.840;4.386;2022-12-13T04:28:22;28.88;;;14.45;;
39676;SDS011;27789;50.840;4.386;2022-12-13T04:30:47;32.15;;;14.48;;
39676;SDS011;27789;50.840;4.386;2022-12-13T04:33:14;26.27;;;14.55;;
39676;SDS011;27789;50.840;4.386;2022-12-13T04:35:39;26.42;;;13.75;;
39676;SDS011;27789;50.840;4.386;2022-12-13T04:38:05;27.77;;;14.35;;
39676;SDS011;27789;50.840;4.386;2022-12-13T04:40:30;31.13;;;14.70;;
39676;SDS011;27789;50.840;4.386;2022-12-13T04:42:56;28.60;;;14.05;;
39676;SDS011;27789;50.840;4.386;2022-12-13T04:45:22;30.50;;;15.48;;
39676;SDS011;27789;50.840;4.386;2022-12-13T04:47:47;33.03;;;16.33;;
39676;SDS011;27789;50.840;4.386;2022-12-13T04:50:13;34.35;;;16.17;;
39676;SDS011;27789;50.840;4.386;2022-12-13T04:52:39;28.88;;;14.48;;
39676;SDS011;27789;50.840;4.386;2022-12-13T04:55:05;27.48;;;14.68;;
39676;SDS011;27789;50.840;4.386;2022-12-13T04:57:32;30.77;;;15.50;;
39676;SDS011;27789;50.840;4.386;2022-12-13T04:59:58;28.17;;;14.65;;
39676;SDS011;27789;50.840;4.386;2022-12-13T05:02:24;27.67;;;15.63;;
39676;SDS011;27789;50.840;4.386;2022-12-13T05:04:50;30.63;;;14.63;;
39676;SDS011;27789;50.840;4.386;2022-12-13T05:07:16;31.05;;;14.15;;
39676;SDS011;27789;50.840;4.386;2022-12-13T05:09:42;29.55;;;15.07;;
39676;SDS011;27789;50.840;4.386;2022-12-13T05:12:07;25.45;;;14.63;;
39676;SDS011;27789;50.840;4.386;2022-12-13T05:14:33;32.45;;;16.50;;
39676;SDS011;27789;50.840;4.386;2022-12-13T05:16:59;28.92;;;15.90;;
39676;SDS011;27789;50.840;4.386;2022-12-13T05:19:25;30.08;;;16.33;;
39676;SDS011;27789;50.840;4.386;2022-12-13T05:21:50;30.65;;;15.73;;
39676;SDS011;27789;50.840;4.386;2022-12-13T05:24:16;29.25;;;14.48;;
39676;SDS011;27789;50.840;4.386;2022-12-13T05:26:42;30.98;;;15.02;;
39676;SDS011;27789;50.840;4.386;2022-12-13T05:29:08;27.75;;;15.13;;
39676;SDS011;27789;50.840;4.386;2022-12-13T05:31:34;31.55;;;16.23;;
39676;SDS011;27789;50.840;4.386;2022-12-13T05:34:00;31.77;;;16.08;;
39676;SDS011;27789;50.840;4.386;2022-12-13T05:36:25;27.95;;;14.32;;
39676;SDS011;27789;50.840;4.386;2022-12-13T05:38:51;29.00;;;14.73;;
39676;SDS011;27789;50.840;4.386;2022-12-13T05:41:18;27.85;;;14.57;;
39676;SDS011;27789;50.840;4.386;2022-12-13T05:43:48;30.20;;;15.70;;
39676;SDS011;27789;50.840;4.386;2022-12-13T05:46:14;32.35;;;14.25;;
39676;SDS011;27789;50.840;4.386;2022-12-13T05:48:40;28.40;;;15.40;;
39676;SDS011;27789;50.840;4.386;2022-12-13T05:51:06;31.42;;;15.85;;
39676;SDS011;27789;50.840;4.386;2022-12-13T05:53:32;31.08;;;15.90;;
39676;SDS011;27789;50.840;4.386;2022-12-13T05:55:59;30.08;;;15.43;;
39676;SDS011;27789;50.840;4.386;2022-12-13T05:58:25;31.65;;;15.50;;
39676;SDS011;27789;50.840;4.386;2022-12-13T06:00:51;31.83;;;15.02;;
39676;SDS011;27789;50.840;4.386;2022-12-13T06:03:16;28.33;;;15.13;;
39676;SDS011;27789;50.840;4.386;2022-12-13T06:05:42;27.90;;;15.52;;
39676;SDS011;27789;50.840;4.386;2022-12-13T06:08:08;30.85;;;16.05;;
39676;SDS011;27789;50.840;4.386;2022-12-13T06:10:34;32.63;;;15.73;;
39676;SDS011;27789;50.840;4.386;2022-12-13T06:13:00;28.65;;;15.70;;
39676;SDS011;27789;50.840;4.386;2022-12-13T06:15:30;27.33;;;15.07;;
39676;SDS011;27789;50.840;4.386;2022-12-13T06:17:58;27.35;;;14.65;;
39676;SDS011;27789;50.840;4.386;2022-12-13T06:20:24;33.65;;;16.98;;
39676;SDS011;27789;50.840;4.386;2022-12-13T06:22:51;32.55;;;16.15;;
39676;SDS011;27789;50.840;4.386;2022-12-13T06:25:17;33.75;;;16.08;;
39676;SDS011;27789;50.840;4.386;2022-12-13T06:27:43;28.27;;;15.88;;
39676;SDS011;27789;50.840;4.386;2022-12-13T06:30:08;30.10;;;16.02;;
39676;SDS011;27789;50.840;4.386;2022-12-13T06:32:34;27.40;;;14.75;;
39676;SDS011;27789;50.840;4.386;2022-12-13T06:35:00;30.30;;;15.02;;
39676;SDS011;27789;50.840;4.386;2022-12-13T06:37:25;34.22;;;16.23;;
39676;SDS011;27789;50.840;4.386;2022-12-13T06:39:51;34.72;;;16.40;;
39676;SDS011;27789;50.840;4.386;2022-12-13T06:42:17;30.48;;;16.70;;
39676;SDS011;27789;50.840;4.386;2022-12-13T06:44:43;31.13;;;16.42;;
39676;SDS011;27789;50.840;4.386;2022-12-13T06:47:09;37.20;;;16.42;;
39676;SDS011;27789;50.840;4.386;2022-12-13T06:49:35;29.15;;;17.20;;
39676;SDS011;27789;50.840;4.386;2022-12-13T06:52:01;32.78;;;17.10;;
39676;SDS011;27789;50.840;4.386;2022-12-13T06:54:27;31.88;;;15.85;;
39676;SDS011;27789;50.840;4.386;2022-12-13T06:56:52;34.88;;;17.25;;
39676;SDS011;27789;50.840;4.386;2022-12-13T06:59:18;33.72;;;16.38;;
39676;SDS011;27789;50.840;4.386;2022-12-13T07:01:51;32.40;;;15.77;;
39676;SDS011;27789;50.840;4.386;2022-12-13T07:04:16;33.00;;;17.23;;
39676;SDS011;27789;50.840;4.386;2022-12-13T07:06:58;33.00;;;17.33;;
39676;SDS011;27789;50.840;4.386;2022-12-13T07:09:24;32.67;;;17.83;;
39676;SDS011;27789;50.840;4.386;2022-12-13T07:11:49;31.35;;;16.50;;
39676;SDS011;27789;50.840;4.386;2022-12-13T07:14:15;37.88;;;17.50;;
39676;SDS011;27789;50.840;4.386;2022-12-13T07:16:41;33.05;;;16.52;;
39676;SDS011;27789;50.840;4.386;2022-12-13T07:19:08;31.83;;;15.77;;
39676;SDS011;27789;50.840;4.386;2022-12-13T07:21:35;33.05;;;16.52;;
39676;SDS011;27789;50.840;4.386;2022-12-13T07:24:02;35.38;;;17.67;;
39676;SDS011;27789;50.840;4.386;2022-12-13T07:26:28;34.00;;;17.02;;
39676;SDS011;27789;50.840;4.386;2022-12-13T07:28:53;31.67;;;16.90;;
39676;SDS011;27789;50.840;4.386;2022-12-13T07:31:19;34.03;;;17.55;;
39676;SDS011;27789;50.840;4.386;2022-12-13T07:33:45;31.50;;;16.08;;
39676;SDS011;27789;50.840;4.386;2022-12-13T07:36:12;32.75;;;16.70;;
39676;SDS011;27789;50.840;4.386;2022-12-13T07:38:40;33.90;;;17.65;;
39676;SDS011;27789;50.840;4.386;2022-12-13T07:41:06;35.78;;;17.95;;
39676;SDS011;27789;50.840;4.386;2022-12-13T07:43:32;36.67;;;17.33;;
39676;SDS011;27789;50.840;4.386;2022-12-13T07:45:58;33.33;;;16.80;;
39676;SDS011;27789;50.840;4.386;2022-12-13T07:48:29;40.40;;;17.90;;
39676;SDS011;27789;50.840;4.386;2022-12-13T07:50:59;33.38;;;16.38;;
39676;SDS011;27789;50.840;4.386;2022-12-13T07:53:26;38.65;;;17.00;;
39676;SDS011;27789;50.840;4.386;2022-12-13T07:55:52;36.88;;;16.33;;
39676;SDS011;27789;50.840;4.386;2022-12-13T07:58:18;38.83;;;17.38;;
39676;SDS011;27789;50.840;4.386;2022-12-13T08:00:44;35.17;;;17.65;;
39676;SDS011;27789;50.840;4.386;2022-12-13T08:03:10;33.08;;;16.95;;
39676;SDS011;27789;50.840;4.386;2022-12-13T08:05:39;26.80;;;15.63;;
39676;SDS011;27789;50.840;4.386;2022-12-13T08:08:07;31.23;;;16.23;;
39676;SDS011;27789;50.840;4.386;2022-12-13T08:10:34;33.20;;;16.02;;
39676;SDS011;27789;50.840;4.386;2022-12-13T08:13:03;39.45;;;18.45;;
39676;SDS011;27789;50.840;4.386;2022-12-13T08:15:29;33.28;;;17.20;;
39676;SDS011;27789;50.840;4.386;2022-12-13T08:17:55;33.22;;;16.60;;
39676;SDS011;27789;50.840;4.386;2022-12-13T08:20:21;32.22;;;15.90;;
39676;SDS011;27789;50.840;4.386;2022-12-13T08:22:54;37.05;;;16.85;;
39676;SDS011;27789;50.840;4.386;2022-12-13T08:25:20;34.38;;;18.20;;
39676;SDS011;27789;50.840;4.386;2022-12-13T08:27:46;38.70;;;17.23;;
39676;SDS011;27789;50.840;4.386;2022-12-13T08:30:11;29.08;;;15.25;;
39676;SDS011;27789;50.840;4.386;2022-12-13T08:32:37;37.17;;;17.90;;
39676;SDS011;27789;50.840;4.386;2022-12-13T08:35:03;32.30;;;15.55;;
39676;SDS011;27789;50.840;4.386;2022-12-13T08:37:29;38.33;;;15.52;;
39676;SDS011;27789;50.840;4.386;2022-12-13T08:39:56;31.83;;;16.95;;
39676;SDS011;27789;50.840;4.386;2022-12-13T08:42:21;31.88;;;17.10;;
39676;SDS011;27789;50.840;4.386;2022-12-13T08:44:49;41.95;;;18.83;;
39676;SDS011;27789;50.840;4.386;2022-12-13T08:47:16;32.95;;;16.27;;
39676;SDS011;27789;50.840;4.386;2022-12-13T08:49:43;34.00;;;17.75;;
39676;SDS011;27789;50.840;4.386;2022-12-13T08:52:09;32.90;;;15.88;;
39676;SDS011;27789;50.840;4.386;2022-12-13T08:54:34;32.65;;;16.63;;
39676;SDS011;27789;50.840;4.386;2022-12-13T08:57:00;30.45;;;16.40;;
39676;SDS011;27789;50.840;4.386;2022-12-13T08:59:25;34.72;;;18.40;;
39676;SDS011;27789;50.840;4.386;2022-12-13T09:01:53;31.33;;;17.25;;
39676;SDS011;27789;50.840;4.386;2022-12-13T09:04:19;32.35;;;15.68;;
39676;SDS011;27789;50.840;4.386;2022-12-13T09:06:45;35.92;;;17.23;;
39676;SDS011;27789;50.840;4.386;2022-12-13T09:09:10;31.13;;;16.00;;
39676;SDS011;27789;50.840;4.386;2022-12-13T09:11:37;31.85;;;15.93;;
39676;SDS011;27789;50.840;4.386;2022-12-13T09:14:04;32.05;;;16.95;;
39676;SDS011;27789;50.840;4.386;2022-12-13T09:16:30;36.00;;;17.05;;
39676;SDS011;27789;50.840;4.386;2022-12-13T09:19:00;33.45;;;16.45;;
39676;SDS011;27789;50.840;4.386;2022-12-13T09:21:26;35.50;;;15.38;;
39676;SDS011;27789;50.840;4.386;2022-12-13T09:23:52;43.35;;;16.92;;
39676;SDS011;27789;50.840;4.386;2022-12-13T09:26:19;40.58;;;17.58;;
39676;SDS011;27789;50.840;4.386;2022-12-13T09:28:45;29.90;;;16.00;;
39676;SDS011;27789;50.840;4.386;2022-12-13T09:31:12;29.63;;;15.65;;
39676;SDS011;27789;50.840;4.386;2022-12-13T09:33:42;32.13;;;16.00;;
39676;SDS011;27789;50.840;4.386;2022-12-13T09:36:12;28.45;;;14.43;;
39676;SDS011;27789;50.840;4.386;2022-12-13T09:38:39;34.03;;;16.60;;
39676;SDS011;27789;50.840;4.386;2022-12-13T09:43:44;35.15;;;16.52;;
39676;SDS011;27789;50.840;4.386;2022-12-13T09:46:14;36.30;;;17.90;;
39676;SDS011;27789;50.840;4.386;2022-12-13T09:48:51;37.50;;;17.63;;
39676;SDS011;27789;50.840;4.386;2022-12-13T09:51:19;59.83;;;19.73;;
39676;SDS011;27789;50.840;4.386;2022-12-13T09:53:45;28.40;;;15.40;;
39676;SDS011;27789;50.840;4.386;2022-12-13T09:56:14;48.55;;;19.25;;
39676;SDS011;27789;50.840;4.386;2022-12-13T09:58:43;49.00;;;17.17;;
39676;SDS011;27789;50.840;4.386;2022-12-13T10:01:13;33.20;;;15.63;;
39676;SDS011;27789;50.840;4.386;2022-12-13T10:03:40;33.47;;;15.70;;
39676;SDS011;27789;50.840;4.386;2022-12-13T10:06:13;34.50;;;16.92;;
39676;SDS011;27789;50.840;4.386;2022-12-13T10:08:43;29.35;;;17.17;;
39676;SDS011;27789;50.840;4.386;2022-12-13T10:11:15;32.38;;;16.15;;
39676;SDS011;27789;50.840;4.386;2022-12-13T10:13:43;29.67;;;15.18;;
39676;SDS011;27789;50.840;4.386;2022-12-13T10:16:16;33.88;;;16.73;;
39676;SDS011;27789;50.840;4.386;2022-12-13T10:19:00;32.22;;;15.65;;
39676;SDS011;27789;50.840;4.386;2022-12-13T10:21:40;31.60;;;14.63;;
39676;SDS011;27789;50.840;4.386;2022-12-13T10:24:15;35.85;;;16.00;;
39676;SDS011;27789;50.840;4.386;2022-12-13T10:26:51;31.10;;;16.07;;
39676;SDS011;27789;50.840;4.386;2022-12-13T10:29:17;27.48;;;15.68;;
39676;SDS011;27789;50.840;4.386;2022-12-13T10:31:44;32.55;;;16.73;;
39676;SDS011;27789;50.840;4.386;2022-12-13T10:36:52;27.55;;;15.23;;
39676;SDS011;27789;50.840;4.386;2022-12-13T10:39:39;28.02;;;14.48;;
39676;SDS011;27789;50.840;4.386;2022-12-13T10:42:11;24.45;;;13.52;;
39676;SDS011;27789;50.840;4.386;2022-12-13T10:44:39;29.17;;;15.23;;
39676;SDS011;27789;50.840;4.386;2022-12-13T10:47:12;25.70;;;12.95;;
39676;SDS011;27789;50.840;4.386;2022-12-13T10:49:53;24.08;;;13.50;;
39676;SDS011;27789;50.840;4.386;2022-12-13T10:55:02;26.63;;;13.80;;
39676;SDS011;27789;50.840;4.386;2022-12-13T10:57:31;25.30;;;14.45;;
39676;SDS011;27789;50.840;4.386;2022-12-13T10:59:58;24.52;;;13.50;;
39676;SDS011;27789;50.840;4.386;2022-12-13T11:02:31;24.35;;;14.25;;
39676;SDS011;27789;50.840;4.386;2022-12-13T11:04:58;22.63;;;13.48;;
39676;SDS011;27789;50.840;4.386;2022-12-13T11:07:37;23.98;;;14.40;;
39676;SDS011;27789;50.840;4.386;2022-12-13T11:12:51;22.05;;;13.02;;
39676;SDS011;27789;50.840;4.386;2022-12-13T11:15:23;23.25;;;13.88;;
39676;SDS011;27789;50.840;4.386;2022-12-13T11:18:00;32.17;;;14.25;;
39676;SDS011;27789;50.840;4.386;2022-12-13T11:25:40;25.40;;;12.90;;
39676;SDS011;27789;50.840;4.386;2022-12-13T11:30:58;26.27;;;13.30;;
39676;SDS011;27789;50.840;4.386;2022-12-13T11:33:44;24.83;;;14.93;;
39676;SDS011;27789;50.840;4.386;2022-12-13T11:50:14;24.77;;;14.02;;
39676;SDS011;27789;50.840;4.386;2022-12-13T11:55:43;30.05;;;14.50;;
39676;SDS011;27789;50.840;4.386;2022-12-13T12:03:40;22.20;;;11.85;;
39676;SDS011;27789;50.840;4.386;2022-12-13T12:08:54;26.83;;;14.10;;
39676;SDS011;27789;50.840;4.386;2022-12-13T12:19:17;24.48;;;13.23;;
39676;SDS011;27789;50.840;4.386;2022-12-13T12:32:10;25.50;;;12.55;;
39676;SDS011;27789;50.840;4.386;2022-12-13T12:43:31;23.40;;;12.77;;
39676;SDS011;27789;50.840;4.386;2022-12-13T13:02:00;23.33;;;13.43;;
39676;SDS011;27789;50.840;4.386;2022-12-13T13:04:35;22.30;;;12.00;;
39676;SDS011;27789;50.840;4.386;2022-12-13T13:07:12;28.10;;;13.65;;
39676;SDS011;27789;50.840;4.386;2022-12-13T13:09:50;29.25;;;13.05;;
39676;SDS011;27789;50.840;4.386;2022-12-13T13:12:17;28.65;;;14.02;;
39676;SDS011;27789;50.840;4.386;2022-12-13T13:14:43;32.40;;;14.63;;
39676;SDS011;27789;50.840;4.386;2022-12-13T13:19:42;28.23;;;14.65;;
39676;SDS011;27789;50.840;4.386;2022-12-13T13:22:43;25.48;;;13.80;;
39676;SDS011;27789;50.840;4.386;2022-12-13T13:27:31;30.17;;;15.07;;
39676;SDS011;27789;50.840;4.386;2022-12-13T13:32:45;24.05;;;13.63;;
39676;SDS011;27789;50.840;4.386;2022-12-13T13:35:54;22.58;;;13.57;;
39676;SDS011;27789;50.840;4.386;2022-12-13T13:40:42;27.38;;;14.40;;
39676;SDS011;27789;50.840;4.386;2022-12-13T13:51:01;24.92;;;13.77;;
39676;SDS011;27789;50.840;4.386;2022-12-13T14:04:45;26.48;;;15.10;;
39676;SDS011;27789;50.840;4.386;2022-12-13T14:21:29;33.33;;;16.42;;
39676;SDS011;27789;50.840;4.386;2022-12-13T14:24:03;33.38;;;17.17;;
39676;SDS011;27789;50.840;4.386;2022-12-13T14:29:26;32.70;;;17.27;;
39676;SDS011;27789;50.840;4.386;2022-12-13T14:31:55;29.30;;;15.68;;
39676;SDS011;27789;50.840;4.386;2022-12-13T14:34:23;31.08;;;16.70;;
39676;SDS011;27789;50.840;4.386;2022-12-13T14:36:54;32.83;;;16.33;;
39676;SDS011;27789;50.840;4.386;2022-12-13T14:39:28;32.88;;;17.45;;
39676;SDS011;27789;50.840;4.386;2022-12-13T14:41:58;31.80;;;15.50;;
39676;SDS011;27789;50.840;4.386;2022-12-13T14:44:29;39.60;;;16.92;;
39676;SDS011;27789;50.840;4.386;2022-12-13T14:46:59;31.67;;;16.48;;
39676;SDS011;27789;50.840;4.386;2022-12-13T14:49:27;32.55;;;16.65;;
39676;SDS011;27789;50.840;4.386;2022-12-13T14:51:58;40.03;;;18.20;;
39676;SDS011;27789;50.840;4.386;2022-12-13T14:54:39;33.45;;;16.48;;
39676;SDS011;27789;50.840;4.386;2022-12-13T14:57:17;31.40;;;16.48;;
39676;SDS011;27789;50.840;4.386;2022-12-13T14:59:46;35.75;;;17.10;;
39676;SDS011;27789;50.840;4.386;2022-12-13T15:02:14;32.40;;;16.90;;
39676;SDS011;27789;50.840;4.386;2022-12-13T15:04:42;34.88;;;16.27;;
39676;SDS011;27789;50.840;4.386;2022-12-13T15:09:42;33.38;;;16.33;;
39676;SDS011;27789;50.840;4.386;2022-12-13T15:12:16;31.48;;;16.58;;
39676;SDS011;27789;50.840;4.386;2022-12-13T15:15:05;35.83;;;18.40;;
39676;SDS011;27789;50.840;4.386;2022-12-13T15:17:36;32.92;;;17.02;;
39676;SDS011;27789;50.840;4.386;2022-12-13T15:20:26;40.10;;;17.30;;
39676;SDS011;27789;50.840;4.386;2022-12-13T15:22:57;38.90;;;19.02;;
39676;SDS011;27789;50.840;4.386;2022-12-13T15:25:26;33.08;;;17.10;;
39676;SDS011;27789;50.840;4.386;2022-12-13T15:27:52;36.35;;;17.98;;
39676;SDS011;27789;50.840;4.386;2022-12-13T15:30:19;34.65;;;17.85;;
39676;SDS011;27789;50.840;4.386;2022-12-13T15:35:32;44.13;;;19.50;;
39676;SDS011;27789;50.840;4.386;2022-12-13T15:38:01;41.15;;;18.88;;
39676;SDS011;27789;50.840;4.386;2022-12-13T15:40:27;37.63;;;20.00;;
39676;SDS011;27789;50.840;4.386;2022-12-13T15:42:53;41.20;;;20.42;;
39676;SDS011;27789;50.840;4.386;2022-12-13T15:45:20;37.83;;;18.85;;
39676;SDS011;27789;50.840;4.386;2022-12-13T15:47:49;40.22;;;20.77;;
39676;SDS011;27789;50.840;4.386;2022-12-13T15:53:04;41.53;;;20.25;;
39676;SDS011;27789;50.840;4.386;2022-12-13T15:55:43;41.65;;;19.00;;
39676;SDS011;27789;50.840;4.386;2022-12-13T16:00:50;46.53;;;20.75;;
39676;SDS011;27789;50.840;4.386;2022-12-13T16:03:17;46.65;;;22.33;;
39676;SDS011;27789;50.840;4.386;2022-12-13T16:05:48;43.75;;;21.23;;
39676;SDS011;27789;50.840;4.386;2022-12-13T16:10:56;51.13;;;22.95;;
39676;SDS011;27789;50.840;4.386;2022-12-13T16:15:51;43.63;;;22.90;;
39676;SDS011;27789;50.840;4.386;2022-12-13T16:18:32;41.17;;;20.85;;
39676;SDS011;27789;50.840;4.386;2022-12-13T16:21:07;46.47;;;22.92;;
39676;SDS011;27789;50.840;4.386;2022-12-13T16:23:33;51.28;;;23.88;;
39676;SDS011;27789;50.840;4.386;2022-12-13T16:25:59;51.95;;;23.48;;
39676;SDS011;27789;50.840;4.386;2022-12-13T16:28:24;46.00;;;23.08;;
39676;SDS011;27789;50.840;4.386;2022-12-13T16:30:55;50.08;;;23.83;;
39676;SDS011;27789;50.840;4.386;2022-12-13T16:33:26;45.67;;;23.70;;
39676;SDS011;27789;50.840;4.386;2022-12-13T16:35:52;48.45;;;24.10;;
39676;SDS011;27789;50.840;4.386;2022-12-13T16:38:18;53.22;;;24.15;;
39676;SDS011;27789;50.840;4.386;2022-12-13T16:40:44;50.33;;;25.67;;
39676;SDS011;27789;50.840;4.386;2022-12-13T16:43:16;53.50;;;23.52;;
39676;SDS011;27789;50.840;4.386;2022-12-13T16:45:47;51.97;;;25.50;;
39676;SDS011;27789;50.840;4.386;2022-12-13T16:48:16;45.53;;;24.02;;
39676;SDS011;27789;50.840;4.386;2022-12-13T16:50:51;47.88;;;23.95;;
39676;SDS011;27789;50.840;4.386;2022-12-13T16:53:17;46.13;;;22.05;;
39676;SDS011;27789;50.840;4.386;2022-12-13T16:55:45;50.95;;;24.20;;
39676;SDS011;27789;50.840;4.386;2022-12-13T16:58:15;51.75;;;25.25;;
39676;SDS011;27789;50.840;4.386;2022-12-13T17:00:42;53.78;;;24.63;;
39676;SDS011;27789;50.840;4.386;2022-12-13T17:03:09;47.22;;;22.88;;
39676;SDS011;27789;50.840;4.386;2022-12-13T17:05:37;46.78;;;23.73;;
39676;SDS011;27789;50.840;4.386;2022-12-13T17:08:04;54.72;;;25.45;;
39676;SDS011;27789;50.840;4.386;2022-12-13T17:10:30;48.53;;;24.80;;
39676;SDS011;27789;50.840;4.386;2022-12-13T17:12:56;49.67;;;24.40;;
39676;SDS011;27789;50.840;4.386;2022-12-13T17:15:21;53.03;;;25.77;;
39676;SDS011;27789;50.840;4.386;2022-12-13T17:17:47;48.20;;;25.13;;
39676;SDS011;27789;50.840;4.386;2022-12-13T17:20:14;52.67;;;25.25;;
39676;SDS011;27789;50.840;4.386;2022-12-13T17:22:41;53.33;;;25.10;;
39676;SDS011;27789;50.840;4.386;2022-12-13T17:25:08;48.55;;;24.63;;